Time,TemperatureF,DewpointF,PressureIn,WindDirection,WindDirectionDegrees,WindSpeedMPH,WindSpeedGustMPH,Humidity,HourlyPrecipIn,Conditions,Clouds,dailyrainin,SoftwareType,DateUTC
2013-07-26 00:00:00,65.8,61.8,30.08,ESE,112,0.0,0.0,87,0.00,,,0.00,WUHU21623XXSP,2013-07-26 04:00:00,
2013-07-26 00:05:00,65.5,61.5,30.08,ESE,112,0.0,0.0,87,0.00,,,0.00,WUHU21623XXSP,2013-07-26 04:05:00,
2013-07-26 00:10:00,65.5,61.5,30.08,ESE,112,0.0,0.0,87,0.00,,,0.00,WUHU21623XXSP,2013-07-26 04:10:00,
2013-07-26 00:15:00,65.3,61.3,30.08,East,90,0.0,1.3,87,0.00,,,0.00,WUHU21623XXSP,2013-07-26 04:15:00,
2013-07-26 00:21:00,65.1,61.2,30.07,ESE,112,0.0,1.3,87,0.00,,,0.00,WUHU21623XXSP,2013-07-26 04:21:00,
2013-07-26 00:26:00,65.1,61.2,30.07,East,90,0.0,0.0,87,0.00,,,0.00,WUHU21623XXSP,2013-07-26 04:26:00,
2013-07-26 00:31:00,65.1,61.5,30.08,East,90,0.0,0.0,88,0.00,,,0.00,WUHU21623XXSP,2013-07-26 04:31:00,
2013-07-26 00:36:00,64.9,61.3,30.08,ESE,112,0.0,0.0,88,0.00,,,0.00,WUHU21623XXSP,2013-07-26 04:36:00,
2013-07-26 00:41:00,64.9,61.3,30.07,ESE,112,0.0,0.0,88,0.00,,,0.00,WUHU21623XXSP,2013-07-26 04:41:00,
2013-07-26 00:46:00,64.8,61.2,30.08,ESE,112,0.0,0.0,88,0.00,,,0.00,WUHU21623XXSP,2013-07-26 04:46:00,
2013-07-26 00:51:00,64.8,61.2,30.07,ESE,112,0.0,0.0,88,0.00,,,0.00,WUHU21623XXSP,2013-07-26 04:51:00,
2013-07-26 00:56:00,64.6,61.0,30.07,East,90,0.0,0.0,88,0.00,,,0.00,WUHU21623XXSP,2013-07-26 04:56:00,
2013-07-26 01:01:00,64.6,61.0,30.07,South,180,0.0,0.0,88,0.00,,,0.00,WUHU21623XXSP,2013-07-26 05:01:00,
2013-07-26 01:06:00,64.4,60.8,30.07,ESE,112,0.0,0.0,88,0.00,,,0.00,WUHU21623XXSP,2013-07-26 05:06:00,
2013-07-26 01:11:00,64.2,60.7,30.07,ESE,112,0.0,0.0,88,0.00,,,0.00,WUHU21623XXSP,2013-07-26 05:11:00,
2013-07-26 01:16:00,64.2,60.7,30.07,ESE,112,0.0,0.0,88,0.00,,,0.00,WUHU21623XXSP,2013-07-26 05:16:00,
2013-07-26 01:21:00,64.0,60.5,30.07,ESE,112,0.0,0.0,88,0.00,,,0.00,WUHU21623XXSP,2013-07-26 05:21:00,
2013-07-26 01:26:00,64.0,60.5,30.07,ESE,112,0.0,0.0,88,0.00,,,0.00,WUHU21623XXSP,2013-07-26 05:26:00,
2013-07-26 01:31:00,63.9,60.3,30.07,ESE,112,0.0,0.0,88,0.00,,,0.00,WUHU21623XXSP,2013-07-26 05:31:00,
2013-07-26 01:36:00,63.7,60.1,30.06,East,90,0.0,0.0,88,0.00,,,0.00,WUHU21623XXSP,2013-07-26 05:36:00,
2013-07-26 01:41:00,63.7,60.1,30.06,East,90,0.0,0.0,88,0.00,,,0.00,WUHU21623XXSP,2013-07-26 05:41:00,
2013-07-26 01:47:00,63.7,60.1,30.06,ESE,112,0.0,0.0,88,0.00,,,0.00,WUHU21623XXSP,2013-07-26 05:47:00,
2013-07-26 01:52:00,63.5,59.9,30.07,East,90,0.0,0.0,88,0.00,,,0.00,WUHU21623XXSP,2013-07-26 05:52:00,
2013-07-26 01:57:00,63.5,59.9,30.07,South,180,0.0,0.0,88,0.00,,,0.00,WUHU21623XXSP,2013-07-26 05:57:00,
2013-07-26 02:02:00,63.3,59.8,30.07,South,180,0.0,0.0,88,0.00,,,0.00,WUHU21623XXSP,2013-07-26 06:02:00,
2013-07-26 02:07:00,63.1,59.6,30.07,ESE,112,0.0,0.0,88,0.00,,,0.00,WUHU21623XXSP,2013-07-26 06:07:00,
2013-07-26 02:12:00,63.1,59.6,30.07,ESE,112,0.0,0.0,88,0.00,,,0.00,WUHU21623XXSP,2013-07-26 06:12:00,
2013-07-26 02:17:00,63.1,59.9,30.07,East,90,0.0,0.0,89,0.00,,,0.00,WUHU21623XXSP,2013-07-26 06:17:00,
2013-07-26 02:22:00,63.0,59.7,30.07,ESE,112,0.0,0.0,89,0.00,,,0.00,WUHU21623XXSP,2013-07-26 06:22:00,
2013-07-26 02:27:00,62.8,59.6,30.07,ESE,112,0.0,0.0,89,0.00,,,0.00,WUHU21623XXSP,2013-07-26 06:27:00,
2013-07-26 02:32:00,62.8,59.6,30.06,ESE,112,0.0,0.0,89,0.00,,,0.00,WUHU21623XXSP,2013-07-26 06:32:00,
2013-07-26 02:37:00,62.8,59.6,30.06,East,90,0.0,0.0,89,0.00,,,0.00,WUHU21623XXSP,2013-07-26 06:37:00,
2013-07-26 02:42:00,62.8,59.6,30.06,ESE,112,0.0,0.0,89,0.00,,,0.00,WUHU21623XXSP,2013-07-26 06:42:00,
2013-07-26 02:47:00,62.8,59.6,30.06,ESE,112,0.0,0.0,89,0.00,,,0.00,WUHU21623XXSP,2013-07-26 06:47:00,
2013-07-26 02:52:00,62.8,59.6,30.06,ESE,112,0.0,0.0,89,0.00,,,0.00,WUHU21623XXSP,2013-07-26 06:52:00,
2013-07-26 02:57:00,62.6,59.4,30.06,East,90,0.0,0.0,89,0.00,,,0.00,WUHU21623XXSP,2013-07-26 06:57:00,
2013-07-26 03:02:00,62.4,59.2,30.06,East,90,0.0,0.0,89,0.00,,,0.00,WUHU21623XXSP,2013-07-26 07:02:00,
2013-07-26 03:07:00,62.4,59.2,30.06,ESE,112,0.0,0.0,89,0.00,,,0.00,WUHU21623XXSP,2013-07-26 07:07:00,
2013-07-26 03:12:00,62.4,59.2,30.05,ESE,112,0.0,0.0,89,0.00,,,0.00,WUHU21623XXSP,2013-07-26 07:12:00,
2013-07-26 03:17:00,62.4,58.9,30.05,ESE,112,0.0,0.0,88,0.00,,,0.00,WUHU21623XXSP,2013-07-26 07:17:00,
2013-07-26 03:22:00,62.4,58.9,30.05,NNE,22,0.0,0.0,88,0.00,,,0.00,WUHU21623XXSP,2013-07-26 07:22:00,
2013-07-26 03:27:00,62.4,58.9,30.05,ESE,112,0.0,0.0,88,0.00,,,0.00,WUHU21623XXSP,2013-07-26 07:27:00,
2013-07-26 03:32:00,62.4,58.9,30.05,ESE,112,0.0,0.0,88,0.00,,,0.00,WUHU21623XXSP,2013-07-26 07:32:00,
2013-07-26 03:37:00,62.2,58.7,30.05,ESE,112,0.0,0.0,88,0.00,,,0.00,WUHU21623XXSP,2013-07-26 07:37:00,
2013-07-26 03:42:00,62.2,58.7,30.05,ESE,112,0.0,0.0,88,0.00,,,0.00,WUHU21623XXSP,2013-07-26 07:42:00,
2013-07-26 03:47:00,62.2,58.7,30.05,ESE,112,0.0,0.0,88,0.00,,,0.00,WUHU21623XXSP,2013-07-26 07:47:00,
2013-07-26 03:52:00,62.2,58.7,30.05,ESE,112,0.0,0.0,88,0.00,,,0.00,WUHU21623XXSP,2013-07-26 07:52:00,
2013-07-26 03:57:00,62.2,58.7,30.05,South,180,0.0,0.0,88,0.00,,,0.00,WUHU21623XXSP,2013-07-26 07:57:00,
2013-07-26 04:02:00,62.2,58.7,30.06,ESE,112,0.0,0.0,88,0.00,,,0.00,WUHU21623XXSP,2013-07-26 08:02:00,
2013-07-26 04:07:00,61.9,58.3,30.06,ESE,112,0.0,0.0,88,0.00,,,0.00,WUHU21623XXSP,2013-07-26 08:07:00,
2013-07-26 04:12:00,61.9,58.3,30.06,East,90,0.0,0.0,88,0.00,,,0.00,WUHU21623XXSP,2013-07-26 08:12:00,
2013-07-26 04:17:00,61.9,58.3,30.06,ESE,112,0.0,0.0,88,0.00,,,0.00,WUHU21623XXSP,2013-07-26 08:17:00,
2013-07-26 04:22:00,61.9,58.3,30.06,ESE,112,0.0,0.0,88,0.00,,,0.00,WUHU21623XXSP,2013-07-26 08:22:00,
2013-07-26 04:27:00,61.9,58.3,30.06,ESE,112,0.0,0.0,88,0.00,,,0.00,WUHU21623XXSP,2013-07-26 08:27:00,
2013-07-26 04:32:00,61.9,58.3,30.06,ESE,112,0.0,0.0,88,0.00,,,0.00,WUHU21623XXSP,2013-07-26 08:32:00,
2013-07-26 04:37:00,62.1,58.5,30.05,East,90,0.0,0.0,88,0.00,,,0.00,WUHU21623XXSP,2013-07-26 08:37:00,
2013-07-26 04:43:00,61.9,58.3,30.05,ESE,112,0.0,0.0,88,0.00,,,0.00,WUHU21623XXSP,2013-07-26 08:43:00,
2013-07-26 04:48:00,61.9,58.3,30.06,ESE,112,0.0,0.0,88,0.00,,,0.00,WUHU21623XXSP,2013-07-26 08:48:00,
2013-07-26 04:53:00,61.9,58.3,30.06,ESE,112,0.0,0.0,88,0.00,,,0.00,WUHU21623XXSP,2013-07-26 08:53:00,
2013-07-26 04:58:00,61.9,58.3,30.06,East,90,0.0,0.0,88,0.00,,,0.00,WUHU21623XXSP,2013-07-26 08:58:00,
2013-07-26 05:03:00,61.7,58.2,30.06,East,90,0.0,0.0,88,0.00,,,0.00,WUHU21623XXSP,2013-07-26 09:03:00,
2013-07-26 05:08:00,61.9,58.3,30.06,ESE,112,0.0,0.0,88,0.00,,,0.00,WUHU21623XXSP,2013-07-26 09:08:00,
2013-07-26 05:13:00,61.9,58.3,30.06,East,90,0.0,0.0,88,0.00,,,0.00,WUHU21623XXSP,2013-07-26 09:13:00,
2013-07-26 05:18:00,61.7,58.2,30.06,East,90,0.0,0.0,88,0.00,,,0.00,WUHU21623XXSP,2013-07-26 09:18:00,
2013-07-26 05:23:00,61.7,58.2,30.06,ESE,112,0.0,0.0,88,0.00,,,0.00,WUHU21623XXSP,2013-07-26 09:23:00,
2013-07-26 05:28:00,61.7,58.2,30.05,ESE,112,0.0,0.0,88,0.00,,,0.00,WUHU21623XXSP,2013-07-26 09:28:00,
2013-07-26 05:33:00,61.7,58.2,30.06,ESE,112,0.0,0.0,88,0.00,,,0.00,WUHU21623XXSP,2013-07-26 09:33:00,
2013-07-26 05:38:00,61.7,58.2,30.06,East,90,0.0,0.0,88,0.00,,,0.00,WUHU21623XXSP,2013-07-26 09:38:00,
2013-07-26 05:43:00,61.5,58.0,30.06,ESE,112,0.0,0.0,88,0.00,,,0.00,WUHU21623XXSP,2013-07-26 09:43:00,
2013-07-26 05:48:00,61.5,58.0,30.06,ESE,112,0.0,0.0,88,0.00,,,0.00,WUHU21623XXSP,2013-07-26 09:48:00,
2013-07-26 05:53:00,61.5,58.0,30.06,East,90,0.0,0.0,88,0.00,,,0.00,WUHU21623XXSP,2013-07-26 09:53:00,
2013-07-26 05:58:00,61.5,58.0,30.06,East,90,0.0,0.0,88,0.00,,,0.00,WUHU21623XXSP,2013-07-26 09:58:00,
2013-07-26 06:03:00,61.5,58.0,30.07,ESE,112,0.0,0.0,88,0.00,,,0.00,WUHU21623XXSP,2013-07-26 10:03:00,
2013-07-26 06:08:00,61.5,58.0,30.06,East,90,0.0,0.0,88,0.00,,,0.00,WUHU21623XXSP,2013-07-26 10:08:00,
2013-07-26 06:13:00,61.5,58.0,30.07,East,90,0.0,0.0,88,0.00,,,0.00,WUHU21623XXSP,2013-07-26 10:13:00,
2013-07-26 06:18:00,61.5,58.0,30.07,East,90,0.0,0.0,88,0.00,,,0.00,WUHU21623XXSP,2013-07-26 10:18:00,
2013-07-26 06:23:00,61.5,58.0,30.08,East,90,0.0,0.0,88,0.00,,,0.00,WUHU21623XXSP,2013-07-26 10:23:00,
2013-07-26 06:28:00,61.5,58.0,30.08,East,90,0.0,0.0,88,0.00,,,0.00,WUHU21623XXSP,2013-07-26 10:28:00,
2013-07-26 06:33:00,61.5,58.0,30.08,East,90,0.0,0.0,88,0.00,,,0.00,WUHU21623XXSP,2013-07-26 10:33:00,
2013-07-26 06:38:00,61.5,58.0,30.08,East,90,0.0,0.0,88,0.00,,,0.00,WUHU21623XXSP,2013-07-26 10:38:00,
2013-07-26 06:43:00,61.5,58.0,30.08,NNE,22,0.0,0.0,88,0.00,,,0.00,WUHU21623XXSP,2013-07-26 10:43:00,
2013-07-26 06:48:00,61.5,58.0,30.08,East,90,0.0,0.0,88,0.00,,,0.00,WUHU21623XXSP,2013-07-26 10:48:00,
2013-07-26 06:53:00,61.5,58.0,30.08,East,90,0.0,0.0,88,0.00,,,0.00,WUHU21623XXSP,2013-07-26 10:53:00,
2013-07-26 06:58:00,61.5,58.0,30.09,East,90,0.0,0.0,88,0.00,,,0.00,WUHU21623XXSP,2013-07-26 10:58:00,
2013-07-26 07:03:00,61.5,58.0,30.09,East,90,0.0,0.0,88,0.00,,,0.00,WUHU21623XXSP,2013-07-26 11:03:00,
2013-07-26 07:08:00,61.5,58.0,30.09,ESE,112,0.0,0.0,88,0.00,,,0.00,WUHU21623XXSP,2013-07-26 11:08:00,
2013-07-26 07:13:00,61.5,58.0,30.09,East,90,0.0,0.0,88,0.00,,,0.00,WUHU21623XXSP,2013-07-26 11:13:00,
2013-07-26 07:18:00,61.5,58.0,30.09,East,90,0.0,0.0,88,0.00,,,0.00,WUHU21623XXSP,2013-07-26 11:18:00,
2013-07-26 07:23:00,61.5,58.0,30.08,East,90,0.0,0.0,88,0.00,,,0.00,WUHU21623XXSP,2013-07-26 11:23:00,
2013-07-26 07:28:00,61.7,58.2,30.08,ESE,112,0.0,0.0,88,0.00,,,0.00,WUHU21623XXSP,2013-07-26 11:28:00,
2013-07-26 07:33:00,61.9,58.3,30.08,ESE,112,0.0,0.0,88,0.00,,,0.00,WUHU21623XXSP,2013-07-26 11:33:00,
2013-07-26 07:38:00,62.1,58.5,30.08,ESE,112,0.0,0.0,88,0.00,,,0.00,WUHU21623XXSP,2013-07-26 11:38:00,
2013-07-26 07:44:00,62.2,58.7,30.08,ESE,112,0.0,0.0,88,0.00,,,0.00,WUHU21623XXSP,2013-07-26 11:44:00,
2013-07-26 07:49:00,62.4,58.9,30.08,East,90,0.0,0.0,88,0.00,,,0.00,WUHU21623XXSP,2013-07-26 11:49:00,
2013-07-26 07:54:00,62.6,59.0,30.08,East,90,0.0,0.0,88,0.00,,,0.00,WUHU21623XXSP,2013-07-26 11:54:00,
2013-07-26 07:59:00,63.1,59.6,30.08,East,90,0.0,0.0,88,0.00,,,0.00,WUHU21623XXSP,2013-07-26 11:59:00,
2013-07-26 08:04:00,63.1,59.6,30.09,NNE,22,0.0,0.0,88,0.00,,,0.00,WUHU21623XXSP,2013-07-26 12:04:00,
2013-07-26 08:09:00,63.3,59.8,30.09,NNE,22,0.0,0.0,88,0.00,,,0.00,WUHU21623XXSP,2013-07-26 12:09:00,
2013-07-26 08:14:00,64.0,60.5,30.10,North,0,0.0,0.0,88,0.00,,,0.00,WUHU21623XXSP,2013-07-26 12:14:00,
2013-07-26 08:19:00,64.4,60.8,30.10,WNW,292,0.0,0.0,88,0.00,,,0.00,WUHU21623XXSP,2013-07-26 12:19:00,
2013-07-26 08:24:00,65.3,61.7,30.10,NNE,22,0.0,0.0,88,0.00,,,0.00,WUHU21623XXSP,2013-07-26 12:24:00,
2013-07-26 08:29:00,66.9,63.2,30.10,East,90,0.0,0.0,88,0.00,,,0.00,WUHU21623XXSP,2013-07-26 12:29:00,
2013-07-26 08:34:00,67.6,63.9,30.10,NNE,22,0.0,0.0,88,0.00,,,0.00,WUHU21623XXSP,2013-07-26 12:34:00,
2013-07-26 08:39:00,68.0,64.3,30.10,East,90,0.0,0.0,88,0.00,,,0.00,WUHU21623XXSP,2013-07-26 12:39:00,
2013-07-26 08:44:00,68.9,65.2,30.10,North,0,0.0,0.0,88,0.00,,,0.00,WUHU21623XXSP,2013-07-26 12:44:00,
2013-07-26 08:49:00,69.4,65.7,30.10,NNE,22,0.0,0.0,88,0.00,,,0.00,WUHU21623XXSP,2013-07-26 12:49:00,
2013-07-26 08:54:00,70.0,66.2,30.10,NNE,22,0.0,0.0,88,0.00,,,0.00,WUHU21623XXSP,2013-07-26 12:54:00,
2013-07-26 08:59:00,70.3,66.3,30.10,North,0,0.0,0.0,87,0.00,,,0.00,WUHU21623XXSP,2013-07-26 12:59:00,
2013-07-26 09:04:00,70.9,66.8,30.10,East,90,0.0,0.0,87,0.00,,,0.00,WUHU21623XXSP,2013-07-26 13:04:00,
2013-07-26 09:09:00,71.8,67.0,30.10,NNE,22,0.0,0.0,85,0.00,,,0.00,WUHU21623XXSP,2013-07-26 13:09:00,
2013-07-26 09:14:00,72.5,67.4,30.10,NNE,22,0.0,0.0,84,0.00,,,0.00,WUHU21623XXSP,2013-07-26 13:14:00,
2013-07-26 09:19:00,73.2,67.1,30.10,ESE,112,0.0,1.9,81,0.00,,,0.00,WUHU21623XXSP,2013-07-26 13:19:00,
2013-07-26 09:24:00,73.8,66.5,30.10,NNE,22,2.1,2.4,78,0.00,,,0.00,WUHU21623XXSP,2013-07-26 13:24:00,
2013-07-26 09:29:00,74.1,66.9,30.10,NNE,22,0.0,2.4,78,0.00,,,0.00,WUHU21623XXSP,2013-07-26 13:29:00,
2013-07-26 09:34:00,74.1,67.6,30.10,North,0,0.0,0.0,80,0.00,,,0.00,WUHU21623XXSP,2013-07-26 13:34:00,
2013-07-26 09:39:00,75.0,67.7,30.10,WNW,292,0.0,0.0,78,0.00,,,0.00,WUHU21623XXSP,2013-07-26 13:39:00,
2013-07-26 09:44:00,75.6,67.5,30.10,North,0,0.0,0.0,76,0.00,,,0.00,WUHU21623XXSP,2013-07-26 13:44:00,
2013-07-26 09:49:00,76.1,67.6,30.11,NNE,22,0.0,0.0,75,0.00,,,0.00,WUHU21623XXSP,2013-07-26 13:49:00,
2013-07-26 09:54:00,76.8,68.3,30.11,North,0,0.0,1.3,75,0.00,,,0.00,WUHU21623XXSP,2013-07-26 13:54:00,
2013-07-26 09:59:00,76.5,67.9,30.11,North,0,0.0,1.3,75,0.00,,,0.00,WUHU21623XXSP,2013-07-26 13:59:00,
2013-07-26 10:04:00,76.6,66.6,30.11,East,90,2.1,2.4,71,0.00,,,0.00,WUHU21623XXSP,2013-07-26 14:04:00,
2013-07-26 10:09:00,76.6,67.3,30.11,SSW,202,0.0,2.4,73,0.00,,,0.00,WUHU21623XXSP,2013-07-26 14:09:00,
2013-07-26 10:14:00,77.5,68.2,30.11,WNW,292,2.1,2.4,73,0.00,,,0.00,WUHU21623XXSP,2013-07-26 14:14:00,
2013-07-26 10:19:00,77.5,68.2,30.11,North,0,2.1,2.4,73,0.00,,,0.00,WUHU21623XXSP,2013-07-26 14:19:00,
2013-07-26 10:24:00,77.2,67.9,30.11,North,0,1.2,2.4,73,0.00,,,0.00,WUHU21623XXSP,2013-07-26 14:24:00,
2013-07-26 10:30:00,77.4,68.4,30.10,WNW,292,0.0,1.3,74,0.00,,,0.00,WUHU21623XXSP,2013-07-26 14:30:00,
2013-07-26 10:35:00,77.5,68.2,30.11,WNW,292,0.0,1.3,73,0.00,,,0.00,WUHU21623XXSP,2013-07-26 14:35:00,
2013-07-26 10:40:00,77.5,68.2,30.10,North,0,0.0,2.4,73,0.00,,,0.00,WUHU21623XXSP,2013-07-26 14:40:00,
2013-07-26 10:45:00,78.3,68.1,30.10,SSW,202,0.0,2.4,71,0.00,,,0.00,WUHU21623XXSP,2013-07-26 14:45:00,
2013-07-26 10:50:00,78.6,68.4,30.10,North,0,0.0,0.0,71,0.00,,,0.00,WUHU21623XXSP,2013-07-26 14:50:00,
2013-07-26 10:55:00,79.2,68.9,30.10,East,90,0.0,0.0,71,0.00,,,0.00,WUHU21623XXSP,2013-07-26 14:55:00,
2013-07-26 11:00:00,79.0,68.8,30.10,SSW,202,1.2,1.3,71,0.00,,,0.00,WUHU21623XXSP,2013-07-26 15:00:00,
2013-07-26 11:05:00,78.6,69.2,30.11,SSW,202,0.0,1.3,73,0.00,,,0.00,WUHU21623XXSP,2013-07-26 15:05:00,
2013-07-26 11:10:00,78.6,69.2,30.10,North,0,0.0,1.3,73,0.00,,,0.00,WUHU21623XXSP,2013-07-26 15:10:00,
2013-07-26 11:15:00,79.0,69.2,30.10,West,270,0.0,1.3,72,0.00,,,0.00,WUHU21623XXSP,2013-07-26 15:15:00,
2013-07-26 11:20:00,78.6,68.4,30.10,North,0,1.4,1.7,71,0.00,,,0.00,WUHU21623XXSP,2013-07-26 15:20:00,
2013-07-26 11:25:00,78.1,68.7,30.10,WNW,292,0.0,1.7,73,0.00,,,0.00,WUHU21623XXSP,2013-07-26 15:25:00,
2013-07-26 11:30:00,78.6,68.8,30.11,WNW,292,0.0,1.7,72,0.00,,,0.00,WUHU21623XXSP,2013-07-26 15:30:00,
2013-07-26 11:35:00,78.1,68.7,30.10,WNW,292,0.0,0.0,73,0.00,,,0.00,WUHU21623XXSP,2013-07-26 15:35:00,
2013-07-26 11:40:00,78.8,68.6,30.10,West,270,0.0,0.0,71,0.00,,,0.00,WUHU21623XXSP,2013-07-26 15:40:00,
2013-07-26 11:45:00,79.2,69.3,30.10,West,270,0.0,0.0,72,0.00,,,0.00,WUHU21623XXSP,2013-07-26 15:45:00,
2013-07-26 11:50:00,80.1,69.0,30.10,SSW,202,2.3,2.7,69,0.00,,,0.00,WUHU21623XXSP,2013-07-26 15:50:00,
2013-07-26 11:55:00,80.1,69.4,30.10,WNW,292,0.0,2.7,70,0.00,,,0.00,WUHU21623XXSP,2013-07-26 15:55:00,
2013-07-26 12:00:00,80.2,70.0,30.09,West,270,0.0,2.7,71,0.00,,,0.00,WUHU21623XXSP,2013-07-26 16:00:00,
2013-07-26 12:05:00,81.0,70.3,30.09,West,270,2.1,2.4,70,0.00,,,0.00,WUHU21623XXSP,2013-07-26 16:05:00,
2013-07-26 12:10:00,80.6,69.1,30.09,West,270,0.0,2.4,68,0.00,,,0.00,WUHU21623XXSP,2013-07-26 16:10:00,
2013-07-26 12:15:00,81.3,70.2,30.09,WNW,292,1.2,2.4,69,0.00,,,0.00,WUHU21623XXSP,2013-07-26 16:15:00,
2013-07-26 12:21:00,82.2,70.5,30.09,WNW,292,0.0,1.3,68,0.00,,,0.00,WUHU21623XXSP,2013-07-26 16:21:00,
2013-07-26 12:26:00,83.1,71.0,30.09,WNW,292,0.0,1.3,67,0.00,,,0.00,WUHU21623XXSP,2013-07-26 16:26:00,
2013-07-26 12:31:00,82.9,71.2,30.09,WNW,292,0.0,1.7,68,0.00,,,0.00,WUHU21623XXSP,2013-07-26 16:31:00,
2013-07-26 12:36:00,82.6,70.4,30.09,WNW,292,1.2,1.7,67,0.00,,,0.00,WUHU21623XXSP,2013-07-26 16:36:00,
2013-07-26 12:41:00,82.0,69.9,30.09,WNW,292,0.0,1.3,67,0.00,,,0.00,WUHU21623XXSP,2013-07-26 16:41:00,
2013-07-26 12:46:00,81.7,70.1,30.09,WNW,292,0.0,1.3,68,0.00,,,0.00,WUHU21623XXSP,2013-07-26 16:46:00,
2013-07-26 12:51:00,81.5,69.9,30.09,WNW,292,0.0,1.3,68,0.00,,,0.00,WUHU21623XXSP,2013-07-26 16:51:00,
2013-07-26 12:56:00,81.7,70.1,30.09,WNW,292,1.2,1.3,68,0.00,,,0.00,WUHU21623XXSP,2013-07-26 16:56:00,
2013-07-26 13:01:00,82.9,71.2,30.09,North,0,0.0,2.4,68,0.00,,,0.00,WUHU21623XXSP,2013-07-26 17:01:00,
2013-07-26 13:06:00,84.0,72.3,30.08,WNW,292,0.0,2.4,68,0.00,,,0.00,WUHU21623XXSP,2013-07-26 17:06:00,
2013-07-26 13:11:00,84.9,72.3,30.08,WNW,292,0.0,1.3,66,0.00,,,0.00,WUHU21623XXSP,2013-07-26 17:11:00,
2013-07-26 13:16:00,84.7,72.1,30.08,West,270,0.0,2.4,66,0.00,,,0.00,WUHU21623XXSP,2013-07-26 17:16:00,
2013-07-26 13:21:00,84.0,71.4,30.08,SSW,202,2.6,3.0,66,0.00,,,0.00,WUHU21623XXSP,2013-07-26 17:21:00,
2013-07-26 13:26:00,82.8,70.6,30.08,WNW,292,0.0,3.0,67,0.00,,,0.00,WUHU21623XXSP,2013-07-26 17:26:00,
2013-07-26 13:31:00,83.1,71.0,30.08,North,0,1.2,3.0,67,0.00,,,0.00,WUHU21623XXSP,2013-07-26 17:31:00,
2013-07-26 13:36:00,83.8,71.2,30.08,North,0,1.2,1.9,66,0.00,,,0.00,WUHU21623XXSP,2013-07-26 17:36:00,
2013-07-26 13:41:00,84.0,71.4,30.08,WNW,292,1.2,1.7,66,0.00,,,0.00,WUHU21623XXSP,2013-07-26 17:41:00,
2013-07-26 13:46:00,83.3,71.2,30.08,West,270,0.0,1.7,67,0.00,,,0.00,WUHU21623XXSP,2013-07-26 17:46:00,
2013-07-26 13:51:00,82.6,70.9,30.08,NNE,22,0.0,1.3,68,0.00,,,0.00,WUHU21623XXSP,2013-07-26 17:51:00,
2013-07-26 13:56:00,82.4,71.2,30.08,SSW,202,0.0,0.0,69,0.00,,,0.00,WUHU21623XXSP,2013-07-26 17:56:00,
2013-07-26 14:01:00,82.8,71.5,30.07,WNW,292,0.0,0.0,69,0.00,,,0.00,WUHU21623XXSP,2013-07-26 18:01:00,
2013-07-26 14:06:00,83.8,70.8,30.07,East,90,1.2,3.3,65,0.00,,,0.00,WUHU21623XXSP,2013-07-26 18:06:00,
2013-07-26 14:11:00,84.7,71.7,30.07,WNW,292,0.0,3.3,65,0.00,,,0.00,WUHU21623XXSP,2013-07-26 18:11:00,
2013-07-26 14:16:00,84.4,71.3,30.06,North,0,1.7,1.9,65,0.00,,,0.00,WUHU21623XXSP,2013-07-26 18:16:00,
2013-07-26 14:22:00,83.1,71.0,30.06,WNW,292,0.0,1.9,67,0.00,,,0.00,WUHU21623XXSP,2013-07-26 18:22:00,
2013-07-26 14:27:00,83.3,72.1,30.06,North,0,0.0,1.9,69,0.00,,,0.00,WUHU21623XXSP,2013-07-26 18:27:00,
2013-07-26 14:32:00,82.9,71.2,30.06,West,270,0.0,3.3,68,0.00,,,0.00,WUHU21623XXSP,2013-07-26 18:32:00,
2013-07-26 14:37:00,83.5,72.7,30.06,WNW,292,0.0,3.3,70,0.00,,,0.00,WUHU21623XXSP,2013-07-26 18:37:00,
2013-07-26 14:42:00,82.9,71.7,30.05,WNW,292,0.0,1.7,69,0.00,,,0.00,WUHU21623XXSP,2013-07-26 18:42:00,
2013-07-26 14:47:00,82.6,71.8,30.05,West,270,2.6,3.0,70,0.00,,,0.00,WUHU21623XXSP,2013-07-26 18:47:00,
2013-07-26 14:52:00,82.9,72.5,30.05,NNE,22,0.0,3.0,71,0.00,,,0.00,WUHU21623XXSP,2013-07-26 18:52:00,
2013-07-26 14:57:00,83.8,73.0,30.05,North,0,0.0,3.0,70,0.00,,,0.00,WUHU21623XXSP,2013-07-26 18:57:00,
2013-07-26 15:02:00,83.8,72.6,30.04,North,0,0.0,0.0,69,0.00,,,0.00,WUHU21623XXSP,2013-07-26 19:02:00,
2013-07-26 15:07:00,85.6,73.9,30.04,WNW,292,1.4,1.7,68,0.00,,,0.00,WUHU21623XXSP,2013-07-26 19:07:00,
2013-07-26 15:12:00,84.7,73.0,30.04,North,0,0.0,1.7,68,0.00,,,0.00,WUHU21623XXSP,2013-07-26 19:12:00,
2013-07-26 15:17:00,84.4,73.1,30.04,WNW,292,0.0,1.7,69,0.00,,,0.00,WUHU21623XXSP,2013-07-26 19:17:00,
2013-07-26 15:22:00,85.1,73.8,30.03,WNW,292,0.0,0.0,69,0.00,,,0.00,WUHU21623XXSP,2013-07-26 19:22:00,
2013-07-26 15:27:00,85.3,73.5,30.03,North,0,2.1,2.4,68,0.00,,,0.00,WUHU21623XXSP,2013-07-26 19:27:00,
2013-07-26 15:32:00,85.3,73.1,30.03,North,0,0.0,2.4,67,0.00,,,0.00,WUHU21623XXSP,2013-07-26 19:32:00,
2013-07-26 15:37:00,85.8,73.6,30.03,North,0,1.2,2.4,67,0.00,,,0.00,WUHU21623XXSP,2013-07-26 19:37:00,
2013-07-26 15:42:00,85.3,73.1,30.03,North,0,0.0,1.3,67,0.00,,,0.00,WUHU21623XXSP,2013-07-26 19:42:00,
2013-07-26 15:47:00,85.6,73.4,30.03,WNW,292,0.0,1.3,67,0.00,,,0.00,WUHU21623XXSP,2013-07-26 19:47:00,
2013-07-26 15:52:00,85.3,73.1,30.03,West,270,0.0,1.3,67,0.00,,,0.00,WUHU21623XXSP,2013-07-26 19:52:00,
2013-07-26 15:57:00,84.6,72.4,30.02,ESE,112,0.0,0.0,67,0.00,,,0.00,WUHU21623XXSP,2013-07-26 19:57:00,
2013-07-26 16:02:00,84.4,72.2,30.02,WNW,292,1.2,1.3,67,0.00,,,0.00,WUHU21623XXSP,2013-07-26 20:02:00,
2013-07-26 16:07:00,84.0,72.3,30.02,North,0,0.0,1.3,68,0.00,,,0.00,WUHU21623XXSP,2013-07-26 20:07:00,
2013-07-26 16:12:00,83.5,72.2,30.02,North,0,0.0,1.3,69,0.00,,,0.00,WUHU21623XXSP,2013-07-26 20:12:00,
2013-07-26 16:17:00,83.1,72.3,30.02,North,0,0.0,0.0,70,0.00,,,0.00,WUHU21623XXSP,2013-07-26 20:17:00,
2013-07-26 16:22:00,82.9,72.5,30.02,WNW,292,1.7,1.9,71,0.00,,,0.00,WUHU21623XXSP,2013-07-26 20:22:00,
2013-07-26 16:27:00,82.8,72.4,30.02,WNW,292,1.4,1.9,71,0.00,,,0.00,WUHU21623XXSP,2013-07-26 20:27:00,
2013-07-26 16:32:00,82.8,72.0,30.02,West,270,0.0,1.9,70,0.00,,,0.00,WUHU21623XXSP,2013-07-26 20:32:00,
2013-07-26 16:37:00,82.9,73.0,30.02,West,270,0.0,1.3,72,0.00,,,0.00,WUHU21623XXSP,2013-07-26 20:37:00,
2013-07-26 16:42:00,83.3,72.5,30.02,ESE,112,1.7,1.9,70,0.00,,,0.00,WUHU21623XXSP,2013-07-26 20:42:00,
2013-07-26 16:47:00,83.5,73.5,30.02,SSW,202,0.0,1.9,72,0.00,,,0.00,WUHU21623XXSP,2013-07-26 20:47:00,
2013-07-26 16:53:00,83.7,73.3,30.02,SSW,202,1.2,1.9,71,0.00,,,0.00,WUHU21623XXSP,2013-07-26 20:53:00,
2013-07-26 16:58:00,83.8,73.4,30.02,North,0,0.0,1.7,71,0.00,,,0.00,WUHU21623XXSP,2013-07-26 20:58:00,
2013-07-26 17:03:00,84.0,72.3,30.02,WNW,292,0.0,1.7,68,0.00,,,0.00,WUHU21623XXSP,2013-07-26 21:03:00,
2013-07-26 17:08:00,83.8,72.6,30.02,SSW,202,1.2,1.3,69,0.00,,,0.00,WUHU21623XXSP,2013-07-26 21:08:00,
2013-07-26 17:13:00,83.5,72.2,30.02,NNE,22,0.0,1.3,69,0.00,,,0.00,WUHU21623XXSP,2013-07-26 21:13:00,
2013-07-26 17:18:00,83.1,70.5,30.02,SSW,202,1.2,1.3,66,0.00,,,0.00,WUHU21623XXSP,2013-07-26 21:18:00,
2013-07-26 17:23:00,83.5,70.9,30.02,ESE,112,0.0,2.4,66,0.00,,,0.00,WUHU21623XXSP,2013-07-26 21:23:00,
2013-07-26 17:28:00,83.3,70.7,30.02,West,270,0.0,3.0,66,0.00,,,0.00,WUHU21623XXSP,2013-07-26 21:28:00,
2013-07-26 17:33:00,83.3,71.2,30.02,SSW,202,1.2,3.0,67,0.00,,,0.00,WUHU21623XXSP,2013-07-26 21:33:00,
2013-07-26 17:38:00,83.1,71.4,30.02,East,90,1.2,1.9,68,0.00,,,0.00,WUHU21623XXSP,2013-07-26 21:38:00,
2013-07-26 17:43:00,83.1,71.0,30.01,WNW,292,0.0,1.9,67,0.00,,,0.00,WUHU21623XXSP,2013-07-26 21:43:00,
2013-07-26 17:48:00,82.8,71.5,30.02,North,0,0.0,3.0,69,0.00,,,0.00,WUHU21623XXSP,2013-07-26 21:48:00,
2013-07-26 17:53:00,82.6,70.9,30.02,SSW,202,2.1,3.0,68,0.00,,,0.00,WUHU21623XXSP,2013-07-26 21:53:00,
2013-07-26 17:58:00,82.8,69.7,30.01,East,90,1.4,2.4,65,0.00,,,0.00,WUHU21623XXSP,2013-07-26 21:58:00,
2013-07-26 18:03:00,82.9,69.9,30.01,North,0,0.9,1.7,65,0.00,,,0.00,WUHU21623XXSP,2013-07-26 22:03:00,
2013-07-26 18:08:00,82.6,70.4,30.01,North,0,0.0,1.7,67,0.00,,,0.00,WUHU21623XXSP,2013-07-26 22:08:00,
2013-07-26 18:13:00,82.6,69.5,30.01,West,270,0.0,1.0,65,0.00,,,0.00,WUHU21623XXSP,2013-07-26 22:13:00,
2013-07-26 18:18:00,82.6,69.5,30.00,West,270,0.0,0.0,65,0.00,,,0.00,WUHU21623XXSP,2013-07-26 22:18:00,
2013-07-26 18:23:00,82.6,70.0,30.00,NNE,22,1.7,1.9,66,0.00,,,0.00,WUHU21623XXSP,2013-07-26 22:23:00,
2013-07-26 18:28:00,82.2,69.6,30.00,North,0,0.0,1.9,66,0.00,,,0.00,WUHU21623XXSP,2013-07-26 22:28:00,
2013-07-26 18:33:00,82.0,70.4,30.00,West,270,0.0,1.9,68,0.00,,,0.00,WUHU21623XXSP,2013-07-26 22:33:00,
2013-07-26 18:38:00,82.0,70.4,30.00,West,270,0.0,0.0,68,0.00,,,0.00,WUHU21623XXSP,2013-07-26 22:38:00,
2013-07-26 18:43:00,81.9,70.2,30.00,SSW,202,2.3,2.7,68,0.00,,,0.00,WUHU21623XXSP,2013-07-26 22:43:00,
2013-07-26 18:48:00,81.7,70.5,30.00,West,270,0.0,2.7,69,0.00,,,0.00,WUHU21623XXSP,2013-07-26 22:48:00,
2013-07-26 18:53:00,81.7,70.5,30.00,ESE,112,0.0,2.7,69,0.00,,,0.00,WUHU21623XXSP,2013-07-26 22:53:00,
2013-07-26 18:58:00,81.7,71.0,30.00,SSW,202,0.0,0.0,70,0.00,,,0.00,WUHU21623XXSP,2013-07-26 22:58:00,
2013-07-26 19:03:00,81.3,70.6,30.00,SSW,202,0.0,0.0,70,0.00,,,0.00,WUHU21623XXSP,2013-07-26 23:03:00,
2013-07-26 19:08:00,81.3,71.0,30.00,ESE,112,0.0,0.0,71,0.00,,,0.00,WUHU21623XXSP,2013-07-26 23:08:00,
2013-07-26 19:13:00,81.3,71.4,30.00,SSW,202,0.0,0.0,72,0.00,,,0.00,WUHU21623XXSP,2013-07-26 23:13:00,
2013-07-26 19:18:00,81.1,71.7,30.00,SSW,202,0.0,0.0,73,0.00,,,0.00,WUHU21623XXSP,2013-07-26 23:18:00,
2013-07-26 19:23:00,80.4,71.4,30.00,ESE,112,0.0,0.0,74,0.00,,,0.00,WUHU21623XXSP,2013-07-26 23:23:00,
2013-07-26 19:29:00,80.1,71.4,30.00,East,90,0.0,0.0,75,0.00,,,0.00,WUHU21623XXSP,2013-07-26 23:29:00,
2013-07-26 19:34:00,79.7,71.5,30.00,East,90,0.0,0.0,76,0.00,,,0.00,WUHU21623XXSP,2013-07-26 23:34:00,
2013-07-26 19:39:00,79.5,72.1,30.00,NNE,22,1.2,1.3,78,0.00,,,0.00,WUHU21623XXSP,2013-07-26 23:39:00,
2013-07-26 19:44:00,79.2,72.1,30.00,East,90,1.2,1.3,79,0.00,,,0.00,WUHU21623XXSP,2013-07-26 23:44:00,
2013-07-26 19:49:00,79.0,71.9,30.00,North,0,0.0,1.3,79,0.00,,,0.00,WUHU21623XXSP,2013-07-26 23:49:00,
2013-07-26 19:54:00,78.6,72.0,30.00,NNE,22,0.0,1.3,80,0.00,,,0.00,WUHU21623XXSP,2013-07-26 23:54:00,
2013-07-26 19:59:00,78.6,72.3,30.00,South,180,0.0,0.0,81,0.00,,,0.00,WUHU21623XXSP,2013-07-26 23:59:00,
2013-07-26 20:04:00,78.4,72.1,30.01,SSW,202,1.2,1.3,81,0.00,,,0.00,WUHU21623XXSP,2013-07-27 00:04:00,
2013-07-26 20:09:00,77.9,72.3,30.01,North,0,0.0,1.3,83,0.00,,,0.00,WUHU21623XXSP,2013-07-27 00:09:00,
2013-07-26 20:14:00,77.7,72.1,30.01,NNE,22,0.0,1.3,83,0.00,,,0.00,WUHU21623XXSP,2013-07-27 00:14:00,
2013-07-26 20:19:00,77.5,72.0,30.01,SSW,202,0.0,0.0,83,0.00,,,0.00,WUHU21623XXSP,2013-07-27 00:19:00,
2013-07-26 20:24:00,77.5,72.0,30.01,North,0,0.0,0.0,83,0.00,,,0.00,WUHU21623XXSP,2013-07-27 00:24:00,
2013-07-26 20:29:00,77.2,71.6,30.01,East,90,0.0,0.0,83,0.00,,,0.00,WUHU21623XXSP,2013-07-27 00:29:00,
2013-07-26 20:34:00,77.0,71.4,30.01,NNE,22,0.0,0.0,83,0.00,,,0.00,WUHU21623XXSP,2013-07-27 00:34:00,
2013-07-26 20:39:00,76.8,71.6,30.01,ESE,112,0.0,0.0,84,0.00,,,0.00,WUHU21623XXSP,2013-07-27 00:39:00,
2013-07-26 20:44:00,76.3,71.1,30.01,ESE,112,0.0,0.0,84,0.00,,,0.00,WUHU21623XXSP,2013-07-27 00:44:00,
2013-07-26 20:49:00,75.9,70.8,30.02,East,90,0.0,0.0,84,0.00,,,0.00,WUHU21623XXSP,2013-07-27 00:49:00,
2013-07-26 20:54:00,75.7,70.6,30.01,ESE,112,0.0,0.0,84,0.00,,,0.00,WUHU21623XXSP,2013-07-27 00:54:00,
2013-07-26 20:59:00,75.4,70.3,30.02,ESE,112,0.0,0.0,84,0.00,,,0.00,WUHU21623XXSP,2013-07-27 00:59:00,
2013-07-26 21:04:00,75.0,70.3,30.01,ESE,112,0.0,0.0,85,0.00,,,0.00,WUHU21623XXSP,2013-07-27 01:04:00,
2013-07-26 21:09:00,74.8,70.1,30.02,East,90,0.0,0.0,85,0.00,,,0.00,WUHU21623XXSP,2013-07-27 01:09:00,
2013-07-26 21:14:00,74.3,69.5,30.02,ESE,112,0.0,0.0,85,0.00,,,0.00,WUHU21623XXSP,2013-07-27 01:14:00,
2013-07-26 21:19:00,73.9,69.2,30.02,ESE,112,0.0,0.0,85,0.00,,,0.00,WUHU21623XXSP,2013-07-27 01:19:00,
2013-07-26 21:24:00,73.6,68.8,30.02,ESE,112,0.0,0.0,85,0.00,,,0.00,WUHU21623XXSP,2013-07-27 01:24:00,
2013-07-26 21:29:00,73.4,69.0,30.02,East,90,0.0,0.0,86,0.00,,,0.00,WUHU21623XXSP,2013-07-27 01:29:00,
2013-07-26 21:34:00,73.2,68.8,30.02,East,90,0.0,0.0,86,0.00,,,0.00,WUHU21623XXSP,2013-07-27 01:34:00,
2013-07-26 21:39:00,73.0,68.6,30.02,East,90,0.0,0.0,86,0.00,,,0.00,WUHU21623XXSP,2013-07-27 01:39:00,
2013-07-26 21:44:00,72.9,68.4,30.02,South,180,0.0,0.0,86,0.00,,,0.00,WUHU21623XXSP,2013-07-27 01:44:00,
2013-07-26 21:49:00,72.7,68.3,30.02,ESE,112,0.0,0.0,86,0.00,,,0.00,WUHU21623XXSP,2013-07-27 01:49:00,
2013-07-26 21:54:00,72.5,68.1,30.02,ESE,112,0.0,0.0,86,0.00,,,0.00,WUHU21623XXSP,2013-07-27 01:54:00,
2013-07-26 21:59:00,72.3,67.9,30.03,ESE,112,0.0,0.0,86,0.00,,,0.00,WUHU21623XXSP,2013-07-27 01:59:00,
2013-07-26 22:04:00,72.3,68.2,30.03,East,90,0.0,1.7,87,0.00,,,0.00,WUHU21623XXSP,2013-07-27 02:04:00,
2013-07-26 22:09:00,72.3,68.2,30.02,ESE,112,0.0,1.7,87,0.00,,,0.00,WUHU21623XXSP,2013-07-27 02:09:00,
2013-07-26 22:14:00,72.1,68.1,30.03,ESE,112,0.0,0.0,87,0.00,,,0.00,WUHU21623XXSP,2013-07-27 02:14:00,
2013-07-26 22:20:00,72.1,68.1,30.03,NNE,22,0.0,0.0,87,0.00,,,0.00,WUHU21623XXSP,2013-07-27 02:20:00,
2013-07-26 22:25:00,72.1,68.1,30.02,NNE,22,0.0,0.0,87,0.00,,,0.00,WUHU21623XXSP,2013-07-27 02:25:00,
2013-07-26 22:30:00,72.1,68.1,30.02,NNE,22,0.0,0.0,87,0.00,,,0.00,WUHU21623XXSP,2013-07-27 02:30:00,
2013-07-26 22:35:00,72.0,67.9,30.03,South,180,0.0,0.0,87,0.00,,,0.00,WUHU21623XXSP,2013-07-27 02:35:00,
2013-07-26 22:40:00,71.8,67.7,30.03,South,180,0.0,0.0,87,0.00,,,0.00,WUHU21623XXSP,2013-07-27 02:40:00,
2013-07-26 22:45:00,71.8,67.7,30.02,South,180,0.0,0.0,87,0.00,,,0.00,WUHU21623XXSP,2013-07-27 02:45:00,
2013-07-26 22:50:00,71.4,67.3,30.02,South,180,0.0,0.0,87,0.00,,,0.00,WUHU21623XXSP,2013-07-27 02:50:00,
2013-07-26 22:55:00,71.4,67.3,30.02,SSW,202,0.0,0.0,87,0.00,,,0.00,WUHU21623XXSP,2013-07-27 02:55:00,
2013-07-26 23:00:00,71.2,67.2,30.02,SSW,202,0.0,0.0,87,0.00,,,0.00,WUHU21623XXSP,2013-07-27 03:00:00,
2013-07-26 23:05:00,71.2,67.2,30.02,SSW,202,0.0,0.0,87,0.00,,,0.00,WUHU21623XXSP,2013-07-27 03:05:00,
2013-07-26 23:10:00,71.1,67.0,30.02,South,180,0.0,0.0,87,0.00,,,0.00,WUHU21623XXSP,2013-07-27 03:10:00,
2013-07-26 23:15:00,70.9,66.8,30.02,ESE,112,0.0,1.3,87,0.00,,,0.00,WUHU21623XXSP,2013-07-27 03:15:00,
2013-07-26 23:20:00,70.7,66.6,30.02,East,90,0.0,1.3,87,0.00,,,0.00,WUHU21623XXSP,2013-07-27 03:20:00,
2013-07-26 23:25:00,70.5,66.4,30.02,ESE,112,0.0,0.0,87,0.00,,,0.00,WUHU21623XXSP,2013-07-27 03:25:00,
2013-07-26 23:30:00,70.3,66.3,30.02,ESE,112,0.0,0.0,87,0.00,,,0.00,WUHU21623XXSP,2013-07-27 03:30:00,
2013-07-26 23:35:00,70.3,66.3,30.02,ESE,112,0.0,0.0,87,0.00,,,0.00,WUHU21623XXSP,2013-07-27 03:35:00,
2013-07-26 23:40:00,70.2,66.1,30.02,ESE,112,0.0,0.0,87,0.00,,,0.00,WUHU21623XXSP,2013-07-27 03:40:00,
2013-07-26 23:45:00,70.0,65.9,30.02,ESE,112,0.0,0.0,87,0.00,,,0.00,WUHU21623XXSP,2013-07-27 03:45:00,
2013-07-26 23:50:00,70.0,65.9,30.02,East,90,0.0,0.0,87,0.00,,,0.00,WUHU21623XXSP,2013-07-27 03:50:00,
2013-07-26 23:55:00,70.0,66.2,30.03,ESE,112,0.0,0.0,88,0.00,,,0.00,WUHU21623XXSP,2013-07-27 03:55:00,